Time;durP1;ratioP1;P1;durP2;ratioP2;P2;SDS_P1;SDS_P2;PMS_P1;PMS_P2;Temp;Humidity;BMP_temperature;BMP_pressure;BME280_temperature;BME280_humidity;BME280_pressure;Samples;Min_cycle;Max_cycle;Signal;HPM_P1;HPM_P2
2022/06/18 00:00:37;;;;;;;;;;;15.20;99.90;;;;;;5114445;28;19912;-69
2022/06/18 00:03:03;;;;;;;;;;;15.20;99.90;;;;;;5114071;28;19922;-69
2022/06/18 00:05:29;;;;;;;;;;;15.20;99.90;;;;;;5113861;28;19915;-69
2022/06/18 00:07:56;;;;;;;;;;;15.20;99.90;;;;;;5114165;28;20332;-69
2022/06/18 00:10:24;;;;;;;;;;;15.30;99.90;;;;;;5114057;28;20264;-69
2022/06/18 00:15:36;;;;;;;;;;;15.20;99.90;;;;;;5113165;28;19918;-69
2022/06/18 00:18:02;;;;;;;;;;;15.20;99.90;;;;;;5113600;28;19942;-69
2022/06/18 00:20:29;;;;;;;;;;;15.20;99.90;;;;;;5113845;28;20048;-69
2022/06/18 00:22:57;;;;;;;;;;;15.20;99.90;;;;;;5113620;28;19916;-70
2022/06/18 00:25:32;;;;;;;;;;;15.20;99.90;;;;;;5113816;28;19912;-69
2022/06/18 00:27:58;;;;;;;;;;;15.20;99.90;;;;;;5113299;28;19957;-69
2022/06/18 00:30:25;;;;;;;;;;;15.20;99.90;;;;;;5113139;28;20325;-70
2022/06/18 00:32:51;;;;;;;;;;;15.20;99.90;;;;;;5113695;28;19915;-69
2022/06/18 00:35:17;;;;;;;;;;;15.20;99.90;;;;;;5113097;28;19984;-69
2022/06/18 00:37:43;;;;;;;;;;;15.20;99.90;;;;;;5113680;28;19923;-69
2022/06/18 00:40:21;;;;;;;;;;;15.20;99.90;;;;;;5112909;28;20029;-69
2022/06/18 00:42:49;;;;;;;;;;;15.20;99.90;;;;;;5112972;28;20423;-68
2022/06/18 00:45:15;;;;;;;;;;;15.20;99.90;;;;;;5113271;28;20699;-69
2022/06/18 00:47:41;;;;;;;;;;;15.20;99.90;;;;;;5113204;28;19912;-70
2022/06/18 00:50:21;;;;;;;;;;;15.20;99.90;;;;;;5112996;28;19920;-69
2022/06/18 00:52:50;;;;;;;;;;;15.20;99.90;;;;;;5112915;28;19966;-69
2022/06/18 00:55:22;;;;;;;;;;;15.20;99.90;;;;;;5113092;28;19918;-69
2022/06/18 00:57:59;;;;;;;;;;;15.20;99.90;;;;;;5112927;28;19920;-70
2022/06/18 01:00:38;;;;;;;;;;;15.20;99.90;;;;;;5113036;28;20367;-69
2022/06/18 01:03:04;;;;;;;;;;;15.20;99.90;;;;;;5112754;28;19934;-69
2022/06/18 01:05:35;;;;;;;;;;;15.20;99.90;;;;;;5112973;28;19915;-70
2022/06/18 01:08:03;;;;;;;;;;;15.10;99.90;;;;;;5112477;28;19912;-69
2022/06/18 01:10:29;;;;;;;;;;;15.10;99.90;;;;;;5112595;28;19963;-70
2022/06/18 01:12:55;;;;;;;;;;;15.10;99.90;;;;;;5112403;28;19963;-69
2022/06/18 01:15:21;;;;;;;;;;;15.10;99.90;;;;;;5112782;28;19912;-69
2022/06/18 01:17:48;;;;;;;;;;;15.20;99.90;;;;;;5112704;28;19912;-69
2022/06/18 01:20:14;;;;;;;;;;;15.20;99.90;;;;;;5112541;28;19965;-69
2022/06/18 01:22:49;;;;;;;;;;;15.20;99.90;;;;;;5112234;28;19949;-69
2022/06/18 01:25:15;;;;;;;;;;;15.10;99.90;;;;;;5112591;28;19912;-70
2022/06/18 01:27:40;;;;;;;;;;;15.10;99.90;;;;;;5112287;28;19915;-68
2022/06/18 01:30:11;;;;;;;;;;;15.10;99.90;;;;;;5111935;28;19924;-69
2022/06/18 01:32:37;;;;;;;;;;;15.00;99.90;;;;;;5109092;28;20299;-69
2022/06/18 01:35:04;;;;;;;;;;;15.00;99.90;;;;;;5098810;28;19941;-69
2022/06/18 01:37:30;;;;;;;;;;;15.00;99.90;;;;;;5093891;28;19994;-69
2022/06/18 01:39:56;;;;;;;;;;;15.00;99.90;;;;;;5112287;28;20290;-69
2022/06/18 01:42:29;;;;;;;;;;;15.00;99.90;;;;;;5111780;28;19912;-69
2022/06/18 01:44:58;;;;;;;;;;;14.90;99.90;;;;;;5093749;28;19912;-69
2022/06/18 01:47:31;;;;;;;;;;;14.90;99.90;;;;;;5111789;28;19919;-69
2022/06/18 01:50:01;;;;;;;;;;;14.90;99.90;;;;;;5112125;28;19915;-69
2022/06/18 01:52:29;;;;;;;;;;;14.90;99.90;;;;;;5111706;28;19922;-69
2022/06/18 01:54:57;;;;;;;;;;;14.90;99.90;;;;;;5112085;28;19912;-69
2022/06/18 01:57:29;;;;;;;;;;;14.90;99.90;;;;;;5111740;28;20325;-69
2022/06/18 01:59:56;;;;;;;;;;;14.90;99.90;;;;;;5111974;28;19912;-69
2022/06/18 02:02:22;;;;;;;;;;;14.90;99.90;;;;;;5111744;28;20301;-69
2022/06/18 02:04:47;;;;;;;;;;;15.00;99.90;;;;;;5112057;28;19915;-69
2022/06/18 02:07:14;;;;;;;;;;;14.90;99.90;;;;;;5111636;28;20346;-69
2022/06/18 02:09:44;;;;;;;;;;;15.00;99.90;;;;;;5111711;28;19915;-68
2022/06/18 02:12:11;;;;;;;;;;;15.10;99.90;;;;;;5111619;28;19950;-69
2022/06/18 02:14:38;;;;;;;;;;;15.10;99.90;;;;;;5111821;28;19911;-69
2022/06/18 02:17:06;;;;;;;;;;;15.10;99.90;;;;;;5111565;28;19912;-69
2022/06/18 02:19:33;;;;;;;;;;;15.10;99.90;;;;;;5111791;28;19915;-69
2022/06/18 02:21:59;;;;;;;;;;;15.20;99.90;;;;;;5111510;28;19912;-69
2022/06/18 02:24:25;;;;;;;;;;;15.20;99.90;;;;;;5111757;28;19956;-70
2022/06/18 02:26:50;;;;;;;;;;;15.20;99.90;;;;;;5111349;28;20360;-69
2022/06/18 02:29:21;;;;;;;;;;;15.10;99.90;;;;;;5111202;28;19912;-68
2022/06/18 02:31:46;;;;;;;;;;;15.10;99.90;;;;;;5111402;28;19908;-69
2022/06/18 02:34:15;;;;;;;;;;;15.10;99.90;;;;;;5111693;28;19916;-70
2022/06/18 02:36:43;;;;;;;;;;;15.10;99.90;;;;;;5110808;28;21546;-68
2022/06/18 02:39:14;;;;;;;;;;;15.10;99.90;;;;;;5112546;28;19958;-69
2022/06/18 02:41:41;;;;;;;;;;;15.10;99.90;;;;;;5097129;28;19916;-68
2022/06/18 02:44:07;;;;;;;;;;;15.10;99.90;;;;;;5096939;28;19915;-69
2022/06/18 02:46:33;;;;;;;;;;;15.20;99.90;;;;;;5115650;28;19923;-69
2022/06/18 02:49:02;;;;;;;;;;;15.20;99.90;;;;;;5115435;28;19911;-69
2022/06/18 02:51:30;;;;;;;;;;;15.20;99.90;;;;;;5115286;28;19954;-69
2022/06/18 02:53:56;;;;;;;;;;;15.20;99.90;;;;;;5115109;28;19934;-69
2022/06/18 02:56:22;;;;;;;;;;;15.20;99.90;;;;;;5115225;28;19961;-68
2022/06/18 02:58:47;;;;;;;;;;;15.30;99.90;;;;;;5114864;28;19916;-69
2022/06/18 03:01:24;;;;;;;;;;;15.30;99.90;;;;;;5114972;28;19941;-69
2022/06/18 03:03:52;;;;;;;;;;;15.30;99.90;;;;;;5114743;28;19915;-70
2022/06/18 03:06:19;;;;;;;;;;;15.30;99.90;;;;;;5114848;28;20393;-69
2022/06/18 03:08:46;;;;;;;;;;;15.30;99.90;;;;;;5114757;28;19911;-69
2022/06/18 03:13:57;;;;;;;;;;;15.30;99.90;;;;;;5115154;28;20372;-69
2022/06/18 03:16:23;;;;;;;;;;;15.40;99.90;;;;;;5115111;28;19915;-69
2022/06/18 03:18:50;;;;;;;;;;;15.40;99.90;;;;;;5114774;28;19930;-69
2022/06/18 03:21:21;;;;;;;;;;;15.40;99.90;;;;;;5096371;28;19916;-69
2022/06/18 03:23:47;;;;;;;;;;;15.50;99.90;;;;;;5114437;28;19935;-69
2022/06/18 03:26:12;;;;;;;;;;;15.40;99.90;;;;;;5114575;28;20429;-70
2022/06/18 03:28:38;;;;;;;;;;;15.50;99.90;;;;;;5114299;28;19915;-69
2022/06/18 03:31:03;;;;;;;;;;;15.50;99.90;;;;;;5114275;28;20302;-69
2022/06/18 03:33:29;;;;;;;;;;;15.40;99.90;;;;;;5114263;28;20468;-70
2022/06/18 03:35:55;;;;;;;;;;;15.40;99.90;;;;;;5114899;28;19924;-69
2022/06/18 03:38:20;;;;;;;;;;;15.50;99.90;;;;;;5114222;28;19912;-69
2022/06/18 03:40:51;;;;;;;;;;;15.30;99.90;;;;;;5114710;28;19919;-69
2022/06/18 03:43:20;;;;;;;;;;;15.40;99.90;;;;;;5114377;28;19916;-69
2022/06/18 03:45:47;;;;;;;;;;;15.40;99.90;;;;;;5114766;28;19914;-69
2022/06/18 03:48:22;;;;;;;;;;;15.50;99.90;;;;;;5114104;28;20019;-69
2022/06/18 03:50:47;;;;;;;;;;;15.50;99.90;;;;;;5113144;28;19958;-69
2022/06/18 03:53:13;;;;;;;;;;;15.50;99.90;;;;;;5113827;28;20395;-68
2022/06/18 03:55:38;;;;;;;;;;;15.40;99.90;;;;;;5114434;28;19911;-70
2022/06/18 03:58:04;;;;;;;;;;;15.50;99.90;;;;;;5114053;28;20268;-69
2022/06/18 04:00:29;;;;;;;;;;;15.40;99.90;;;;;;5113800;28;19912;-69
2022/06/18 04:02:55;;;;;;;;;;;15.40;99.90;;;;;;5113786;28;20280;-69
2022/06/18 04:05:20;;;;;;;;;;;15.40;99.90;;;;;;5114189;28;20399;-69
2022/06/18 04:07:46;;;;;;;;;;;15.40;99.90;;;;;;5113930;28;19920;-69
2022/06/18 04:10:17;;;;;;;;;;;15.40;99.90;;;;;;5114040;28;19923;-69
2022/06/18 04:12:42;;;;;;;;;;;15.50;99.90;;;;;;5113609;28;20283;-69
2022/06/18 04:15:08;;;;;;;;;;;15.40;99.90;;;;;;5113838;28;19911;-70
2022/06/18 04:17:33;;;;;;;;;;;15.40;99.90;;;;;;5113506;28;19915;-69
2022/06/18 04:19:59;;;;;;;;;;;15.50;99.90;;;;;;5113677;28;19911;-70
2022/06/18 04:22:25;;;;;;;;;;;15.50;99.90;;;;;;5113959;28;20424;-69
2022/06/18 04:24:51;;;;;;;;;;;15.50;99.90;;;;;;5113641;28;19908;-69
2022/06/18 04:27:16;;;;;;;;;;;15.40;99.90;;;;;;5113657;28;19916;-70
2022/06/18 04:29:42;;;;;;;;;;;15.40;99.90;;;;;;5112972;28;19927;-69
2022/06/18 04:32:07;;;;;;;;;;;15.60;99.90;;;;;;5095036;28;20286;-69
2022/06/18 04:34:33;;;;;;;;;;;15.60;99.90;;;;;;5113224;28;19920;-69
2022/06/18 04:36:58;;;;;;;;;;;15.60;99.90;;;;;;5113177;28;19912;-70
2022/06/18 04:39:24;;;;;;;;;;;15.60;99.90;;;;;;5094946;28;20264;-70
2022/06/18 04:41:50;;;;;;;;;;;15.60;99.90;;;;;;5113320;28;19959;-69
2022/06/18 04:44:15;;;;;;;;;;;15.70;99.90;;;;;;5094619;28;19954;-70
2022/06/18 04:46:41;;;;;;;;;;;15.80;99.90;;;;;;5113142;28;19942;-70
2022/06/18 04:49:06;;;;;;;;;;;15.90;99.90;;;;;;5113183;28;19916;-69
2022/06/18 04:51:32;;;;;;;;;;;16.00;99.90;;;;;;5112842;28;19916;-69
2022/06/18 04:53:57;;;;;;;;;;;16.10;99.90;;;;;;5094408;28;20014;-70
2022/06/18 04:56:23;;;;;;;;;;;16.20;99.90;;;;;;5112790;28;19915;-69
2022/06/18 04:58:48;;;;;;;;;;;16.20;99.90;;;;;;5112598;28;19931;-69
2022/06/18 05:01:15;;;;;;;;;;;16.20;99.90;;;;;;5112639;28;19912;-69
2022/06/18 05:03:41;;;;;;;;;;;16.30;99.90;;;;;;5112281;28;19907;-69
2022/06/18 05:06:06;;;;;;;;;;;16.40;99.90;;;;;;5112551;28;20007;-69
2022/06/18 05:08:32;;;;;;;;;;;16.40;99.90;;;;;;5094220;28;20367;-69
2022/06/18 05:10:57;;;;;;;;;;;16.40;99.90;;;;;;5094221;28;20427;-69
2022/06/18 05:13:23;;;;;;;;;;;16.50;99.90;;;;;;5112479;28;19967;-70
2022/06/18 05:15:50;;;;;;;;;;;16.50;99.90;;;;;;5112734;28;19957;-70
2022/06/18 05:18:16;;;;;;;;;;;16.50;99.90;;;;;;5094092;28;19912;-69
2022/06/18 05:20:42;;;;;;;;;;;16.50;99.90;;;;;;5112154;28;19920;-70
2022/06/18 05:23:10;;;;;;;;;;;16.40;99.90;;;;;;5112339;28;20064;-70
2022/06/18 05:25:35;;;;;;;;;;;16.40;99.90;;;;;;5112119;28;20343;-69
2022/06/18 05:28:01;;;;;;;;;;;16.40;99.90;;;;;;5112168;28;19931;-69
2022/06/18 05:30:27;;;;;;;;;;;16.40;99.90;;;;;;5111947;28;19920;-69
2022/06/18 05:32:53;;;;;;;;;;;16.40;99.90;;;;;;5112153;28;20498;-69
2022/06/18 05:35:18;;;;;;;;;;;16.20;99.90;;;;;;5112650;28;19954;-70
2022/06/18 05:37:46;;;;;;;;;;;16.40;99.90;;;;;;5112339;28;19912;-70
2022/06/18 05:40:12;;;;;;;;;;;16.50;99.90;;;;;;5112513;28;20006;-69
2022/06/18 05:42:38;;;;;;;;;;;16.60;99.90;;;;;;5112392;28;19958;-69
2022/06/18 05:45:04;;;;;;;;;;;16.80;99.90;;;;;;5112281;28;20291;-69
2022/06/18 05:47:31;;;;;;;;;;;16.80;99.90;;;;;;5112169;28;19991;-69
2022/06/18 05:49:57;;;;;;;;;;;16.90;99.90;;;;;;5112171;28;19972;-70
2022/06/18 05:52:22;;;;;;;;;;;16.90;99.90;;;;;;5112035;28;19912;-70
2022/06/18 05:54:51;;;;;;;;;;;16.90;99.90;;;;;;5112168;28;19926;-69
2022/06/18 05:57:17;;;;;;;;;;;16.90;99.90;;;;;;5112051;28;19912;-70
2022/06/18 05:59:42;;;;;;;;;;;17.00;99.90;;;;;;5093605;28;19981;-70
2022/06/18 06:02:10;;;;;;;;;;;17.00;99.90;;;;;;5111873;28;20007;-69
2022/06/18 06:04:36;;;;;;;;;;;17.00;99.90;;;;;;5111983;28;20344;-69
2022/06/18 06:07:02;;;;;;;;;;;17.10;99.90;;;;;;5112009;28;20386;-69
2022/06/18 06:12:12;;;;;;;;;;;17.40;99.90;;;;;;5111849;28;19964;-70
2022/06/18 06:14:38;;;;;;;;;;;17.50;99.90;;;;;;5113948;28;19912;-69
2022/06/18 06:17:04;;;;;;;;;;;17.60;99.90;;;;;;5116024;28;20400;-70
2022/06/18 06:19:30;;;;;;;;;;;17.80;99.90;;;;;;5097696;28;19912;-69
2022/06/18 06:21:55;;;;;;;;;;;17.80;99.90;;;;;;5115957;28;20030;-69
2022/06/18 06:24:21;;;;;;;;;;;17.90;99.90;;;;;;5116039;28;20351;-69
2022/06/18 06:26:46;;;;;;;;;;;17.90;99.90;;;;;;5115698;28;19916;-69
2022/06/18 06:29:12;;;;;;;;;;;18.00;99.90;;;;;;5115625;28;19936;-69
2022/06/18 06:31:38;;;;;;;;;;;18.30;99.90;;;;;;5115564;28;19934;-69
2022/06/18 06:34:03;;;;;;;;;;;18.50;99.90;;;;;;5115726;28;19916;-69
2022/06/18 06:36:29;;;;;;;;;;;18.50;99.90;;;;;;5115526;28;19911;-69
2022/06/18 06:38:54;;;;;;;;;;;18.50;99.90;;;;;;5115563;28;19912;-70
2022/06/18 06:41:22;;;;;;;;;;;18.30;99.90;;;;;;5115592;28;19947;-69
2022/06/18 06:43:48;;;;;;;;;;;18.50;99.90;;;;;;5115414;28;20296;-69
2022/06/18 06:46:15;;;;;;;;;;;18.40;99.90;;;;;;5097305;28;20018;-69
2022/06/18 06:48:41;;;;;;;;;;;18.40;99.90;;;;;;5115536;28;19947;-69
2022/06/18 06:51:33;;;;;;;;;;;18.30;99.90;;;;;;5115624;28;19951;-69
2022/06/18 06:53:58;;;;;;;;;;;18.20;99.90;;;;;;5111083;28;19926;-69
2022/06/18 06:59:09;;;;;;;;;;;18.00;99.90;;;;;;5115278;28;19918;-70
2022/06/18 07:01:35;;;;;;;;;;;18.10;99.90;;;;;;5115556;28;20395;-70
2022/06/18 07:04:02;;;;;;;;;;;18.30;99.90;;;;;;5115206;28;19946;-69
2022/06/18 07:06:27;;;;;;;;;;;18.20;99.90;;;;;;5115258;28;19915;-69
2022/06/18 07:08:54;;;;;;;;;;;18.40;99.90;;;;;;5115460;28;19919;-69
2022/06/18 07:11:19;;;;;;;;;;;18.40;99.90;;;;;;5114861;28;19924;-69
2022/06/18 07:13:45;;;;;;;;;;;18.50;99.90;;;;;;5115013;28;20013;-70
2022/06/18 07:16:11;;;;;;;;;;;18.60;99.90;;;;;;5114774;28;19916;-69
2022/06/18 07:18:37;;;;;;;;;;;18.70;99.90;;;;;;5114616;28;19912;-69
2022/06/18 07:21:04;;;;;;;;;;;18.80;99.90;;;;;;5114604;28;20450;-69
2022/06/18 07:23:31;;;;;;;;;;;19.00;99.90;;;;;;5114911;28;20498;-69
2022/06/18 07:25:56;;;;;;;;;;;19.00;99.90;;;;;;5114533;28;19908;-69
2022/06/18 07:28:22;;;;;;;;;;;19.10;99.90;;;;;;5114551;28;19916;-69
2022/06/18 07:30:48;;;;;;;;;;;19.20;99.90;;;;;;5114146;28;20426;-69
2022/06/18 07:33:14;;;;;;;;;;;19.20;99.90;;;;;;5114560;28;19916;-69
2022/06/18 07:35:40;;;;;;;;;;;19.40;99.90;;;;;;5114929;28;19915;-70
2022/06/18 07:38:06;;;;;;;;;;;19.60;99.90;;;;;;5114374;28;20417;-70
2022/06/18 07:40:37;;;;;;;;;;;19.70;99.90;;;;;;5114853;28;19912;-70
2022/06/18 07:43:03;;;;;;;;;;;20.00;99.90;;;;;;5114295;28;19912;-70
2022/06/18 07:45:29;;;;;;;;;;;20.20;99.90;;;;;;5114784;28;19912;-70
2022/06/18 07:47:54;;;;;;;;;;;20.50;99.90;;;;;;5114154;28;19919;-70
2022/06/18 07:50:20;;;;;;;;;;;20.80;99.90;;;;;;5114683;28;19915;-71
2022/06/18 07:52:46;;;;;;;;;;;20.80;99.90;;;;;;5114154;28;19912;-70
2022/06/18 07:55:15;;;;;;;;;;;21.00;99.90;;;;;;5114355;28;19965;-70
2022/06/18 07:57:42;;;;;;;;;;;21.10;99.90;;;;;;5114293;28;20026;-70
2022/06/18 08:00:09;;;;;;;;;;;21.30;99.90;;;;;;5095339;28;19912;-70
2022/06/18 08:02:39;;;;;;;;;;;21.50;99.90;;;;;;5113545;28;19915;-70
2022/06/18 08:05:05;;;;;;;;;;;21.60;99.90;;;;;;5113545;28;19960;-71
2022/06/18 08:07:31;;;;;;;;;;;21.50;99.90;;;;;;5113949;28;19976;-70
2022/06/18 08:09:56;;;;;;;;;;;21.70;99.90;;;;;;5114010;28;19915;-70
2022/06/18 08:12:22;;;;;;;;;;;21.80;99.90;;;;;;5113708;28;20283;-70
2022/06/18 08:14:48;;;;;;;;;;;22.00;99.90;;;;;;5114029;28;19912;-70
2022/06/18 08:17:13;;;;;;;;;;;22.10;99.90;;;;;;5113626;28;19926;-70
2022/06/18 08:19:39;;;;;;;;;;;22.30;99.90;;;;;;5113803;28;20390;-70
2022/06/18 08:22:05;;;;;;;;;;;22.40;99.90;;;;;;5113406;28;19912;-70
2022/06/18 08:24:30;;;;;;;;;;;22.30;99.90;;;;;;5113584;28;19919;-70
2022/06/18 08:26:56;;;;;;;;;;;22.10;99.90;;;;;;5113178;28;19912;-69
2022/06/18 08:29:23;;;;;;;;;;;22.00;99.90;;;;;;5113443;28;20363;-70
2022/06/18 08:31:49;;;;;;;;;;;22.00;99.90;;;;;;5113705;28;19916;-69
2022/06/18 08:34:14;;;;;;;;;;;22.20;99.90;;;;;;5113335;28;20117;-69
2022/06/18 08:36:41;;;;;;;;;;;22.40;99.90;;;;;;5112726;28;20026;-69
2022/06/18 08:39:06;;;;;;;;;;;22.60;99.90;;;;;;5113413;28;20270;-69
2022/06/18 08:41:32;;;;;;;;;;;22.60;99.90;;;;;;5113492;28;19919;-69
2022/06/18 08:44:06;;;;;;;;;;;22.70;99.90;;;;;;5113310;28;20320;-69
2022/06/18 08:46:47;;;;;;;;;;;22.40;99.90;;;;;;5113238;28;19912;-69
2022/06/18 08:49:20;;;;;;;;;;;22.40;99.90;;;;;;5113053;28;20003;-69
2022/06/18 08:52:05;;;;;;;;;;;22.70;99.90;;;;;;5113351;28;19919;-69
2022/06/18 08:54:34;;;;;;;;;;;22.80;99.90;;;;;;5113066;28;19912;-70
2022/06/18 08:57:20;;;;;;;;;;;22.90;99.90;;;;;;5112861;28;19961;-70
2022/06/18 09:00:04;;;;;;;;;;;23.30;99.90;;;;;;5098820;28;20325;-70
2022/06/18 09:02:34;;;;;;;;;;;23.50;99.90;;;;;;5112840;28;20302;-70
2022/06/18 09:04:59;;;;;;;;;;;23.70;99.90;;;;;;5112967;28;19937;-70
2022/06/18 09:07:40;;;;;;;;;;;24.10;99.90;;;;;;5112604;28;19911;-68
2022/06/18 09:10:08;;;;;;;;;;;24.30;99.90;;;;;;5112699;28;20412;-69
2022/06/18 09:12:46;;;;;;;;;;;24.40;99.90;;;;;;5112815;28;19916;-70
2022/06/18 09:15:16;;;;;;;;;;;24.30;99.90;;;;;;5113115;28;19918;-70
2022/06/18 09:17:47;;;;;;;;;;;23.80;99.90;;;;;;5112632;28;20313;-69
2022/06/18 09:20:31;;;;;;;;;;;23.30;99.90;;;;;;5112662;28;19916;-69
2022/06/18 09:23:00;;;;;;;;;;;22.80;99.90;;;;;;5112275;28;20007;-71
2022/06/18 09:25:28;;;;;;;;;;;22.30;99.90;;;;;;5112813;28;19911;-70
2022/06/18 09:27:58;;;;;;;;;;;22.00;99.90;;;;;;5112357;28;19923;-70
2022/06/18 09:30:26;;;;;;;;;;;21.80;99.90;;;;;;5112172;28;19919;-70
2022/06/18 09:33:01;;;;;;;;;;;21.60;99.90;;;;;;5112037;28;20256;-70
2022/06/18 09:35:53;;;;;;;;;;;21.40;99.90;;;;;;5112679;28;19915;-70
2022/06/18 09:38:24;;;;;;;;;;;21.20;99.90;;;;;;5107849;28;19922;-70
2022/06/18 09:40:50;;;;;;;;;;;21.10;99.90;;;;;;5112095;28;20442;-70
2022/06/18 09:43:21;;;;;;;;;;;21.00;99.90;;;;;;5112171;28;19955;-70
2022/06/18 09:45:50;;;;;;;;;;;20.90;99.90;;;;;;5112656;28;19934;-70
2022/06/18 09:48:16;;;;;;;;;;;20.90;99.90;;;;;;5112063;28;19912;-70
2022/06/18 09:50:48;;;;;;;;;;;20.90;99.90;;;;;;5112797;28;19923;-70
2022/06/18 09:53:17;;;;;;;;;;;20.80;99.90;;;;;;5112144;28;19916;-70
2022/06/18 09:55:45;;;;;;;;;;;20.80;99.90;;;;;;5093798;28;19968;-67
2022/06/18 09:58:30;;;;;;;;;;;20.90;99.90;;;;;;5112003;28;19916;-68
2022/06/18 10:00:57;;;;;;;;;;;20.90;99.90;;;;;;5111137;28;20384;-69
2022/06/18 10:09:21;;;;;;;;;;;21.00;99.90;;;;;;5111779;28;19923;-69
2022/06/18 10:11:47;;;;;;;;;;;21.10;99.90;;;;;;5111465;28;19922;-69
2022/06/18 10:14:20;;;;;;;;;;;21.20;99.90;;;;;;5111592;28;20359;-69
2022/06/18 10:16:54;;;;;;;;;;;21.30;99.90;;;;;;5111848;28;19919;-69
2022/06/18 10:19:40;;;;;;;;;;;21.40;99.90;;;;;;5111685;28;19911;-68
2022/06/18 10:22:17;;;;;;;;;;;21.50;99.90;;;;;;5097372;28;19916;-69
2022/06/18 10:24:52;;;;;;;;;;;21.60;99.90;;;;;;5111823;28;19965;-69
2022/06/18 10:27:20;;;;;;;;;;;21.60;99.90;;;;;;5111595;28;19912;-69
2022/06/18 10:29:46;;;;;;;;;;;21.70;99.90;;;;;;5111469;28;19977;-69
2022/06/18 10:32:18;;;;;;;;;;;22.00;99.90;;;;;;5111496;28;19915;-69
2022/06/18 10:34:44;;;;;;;;;;;22.10;99.90;;;;;;5111505;28;19916;-69
2022/06/18 10:37:19;;;;;;;;;;;22.20;99.90;;;;;;5111492;28;19919;-69
2022/06/18 10:40:03;;;;;;;;;;;22.20;99.90;;;;;;5111411;28;19912;-69
2022/06/18 10:42:34;;;;;;;;;;;22.20;99.90;;;;;;5111471;28;19919;-70
2022/06/18 10:45:06;;;;;;;;;;;22.20;99.90;;;;;;5111823;28;19912;-70
2022/06/18 10:47:36;;;;;;;;;;;22.30;99.90;;;;;;5093555;28;19912;-69
2022/06/18 10:50:06;;;;;;;;;;;22.30;99.90;;;;;;5111490;28;19969;-69
2022/06/18 10:52:31;;;;;;;;;;;22.40;99.90;;;;;;5111758;28;19957;-70
2022/06/18 10:55:05;;;;;;;;;;;22.40;99.90;;;;;;5111526;28;19912;-70
2022/06/18 10:57:30;;;;;;;;;;;22.50;99.90;;;;;;5111521;28;19912;-70
2022/06/18 11:00:07;;;;;;;;;;;22.60;99.90;;;;;;5111966;28;20264;-70
2022/06/18 11:02:34;;;;;;;;;;;22.60;99.90;;;;;;5115127;28;19915;-70
2022/06/18 11:05:02;;;;;;;;;;;22.70;99.90;;;;;;5115419;28;19911;-69
2022/06/18 11:07:28;;;;;;;;;;;22.80;99.90;;;;;;5096469;28;20014;-70
2022/06/18 11:09:56;;;;;;;;;;;22.60;99.90;;;;;;5114644;28;19915;-69
2022/06/18 11:12:27;;;;;;;;;;;22.70;99.90;;;;;;5114976;28;19912;-70
2022/06/18 11:14:53;;;;;;;;;;;22.50;99.90;;;;;;5114857;28;20398;-70
2022/06/18 11:17:20;;;;;;;;;;;22.50;99.90;;;;;;5114853;28;19957;-69
2022/06/18 11:19:51;;;;;;;;;;;22.90;99.90;;;;;;5114919;28;19919;-70
2022/06/18 11:22:19;;;;;;;;;;;23.60;99.90;;;;;;5114897;28;19912;-70
2022/06/18 11:24:51;;;;;;;;;;;24.30;99.90;;;;;;5114595;28;20010;-70
2022/06/18 11:27:17;;;;;;;;;;;24.80;99.90;;;;;;5096007;28;19973;-69
2022/06/18 11:29:45;;;;;;;;;;;24.70;99.90;;;;;;5114349;28;19970;-70
2022/06/18 11:32:14;;;;;;;;;;;24.40;99.90;;;;;;5114433;28;19912;-70
2022/06/18 11:34:42;;;;;;;;;;;24.00;99.90;;;;;;5114458;28;19916;-70
2022/06/18 11:37:19;;;;;;;;;;;23.80;99.90;;;;;;5114364;28;19912;-69
2022/06/18 11:39:51;;;;;;;;;;;23.50;99.90;;;;;;5114478;28;19966;-69
2022/06/18 11:42:20;;;;;;;;;;;23.20;99.90;;;;;;5114230;28;20351;-70
2022/06/18 11:44:48;;;;;;;;;;;23.00;99.90;;;;;;5114478;28;20279;-69
2022/06/18 11:47:26;;;;;;;;;;;22.60;99.90;;;;;;5114303;28;19942;-69
2022/06/18 11:49:59;;;;;;;;;;;22.40;99.90;;;;;;5114026;28;19999;-69
2022/06/18 11:52:43;;;;;;;;;;;22.20;99.90;;;;;;5095771;28;19977;-70
2022/06/18 11:55:11;;;;;;;;;;;22.10;99.90;;;;;;5095742;28;19938;-70
2022/06/18 11:57:37;;;;;;;;;;;22.00;99.90;;;;;;5113751;28;19919;-70
2022/06/18 12:00:09;;;;;;;;;;;22.10;99.90;;;;;;5095691;28;20458;-70
2022/06/18 12:02:40;;;;;;;;;;;22.00;99.90;;;;;;5113944;28;20213;-70
2022/06/18 12:05:09;;;;;;;;;;;21.90;99.90;;;;;;5114211;28;19915;-70
2022/06/18 12:07:40;;;;;;;;;;;21.90;99.90;;;;;;5113839;28;20003;-69
2022/06/18 12:10:16;;;;;;;;;;;21.70;99.90;;;;;;5113738;28;20286;-69
2022/06/18 12:13:04;;;;;;;;;;;21.70;99.90;;;;;;5112607;28;20390;-70
2022/06/18 12:15:39;;;;;;;;;;;21.70;99.90;;;;;;5113978;28;19912;-69
2022/06/18 12:18:04;;;;;;;;;;;21.60;99.90;;;;;;5113629;28;19911;-70
2022/06/18 12:20:39;;;;;;;;;;;21.60;99.90;;;;;;5113359;28;19911;-69
2022/06/18 12:23:31;;;;;;;;;;;21.60;99.90;;;;;;5113559;28;19915;-69
2022/06/18 12:26:02;;;;;;;;;;;21.50;99.90;;;;;;5095165;28;20015;-69
2022/06/18 12:28:33;;;;;;;;;;;21.50;99.90;;;;;;5113692;28;20003;-69
2022/06/18 12:31:01;;;;;;;;;;;21.50;99.90;;;;;;5113222;28;20398;-69
2022/06/18 12:33:33;;;;;;;;;;;21.50;99.90;;;;;;5113628;28;19908;-69
2022/06/18 12:35:58;;;;;;;;;;;21.50;99.90;;;;;;5113520;28;20442;-68
2022/06/18 12:38:42;;;;;;;;;;;21.50;99.90;;;;;;5113077;28;19919;-68
2022/06/18 12:41:11;;;;;;;;;;;21.50;99.90;;;;;;5094809;28;19924;-69
2022/06/18 12:43:42;;;;;;;;;;;21.60;99.90;;;;;;5113047;28;20343;-69
2022/06/18 12:46:12;;;;;;;;;;;21.60;99.90;;;;;;5113166;28;20383;-68
2022/06/18 12:49:03;;;;;;;;;;;21.70;99.90;;;;;;5112801;28;19908;-69
2022/06/18 12:51:36;;;;;;;;;;;21.90;99.90;;;;;;5113100;28;20447;-68
2022/06/18 12:54:11;;;;;;;;;;;22.20;99.90;;;;;;5113047;28;19912;-69
2022/06/18 12:56:55;;;;;;;;;;;22.50;99.90;;;;;;5112924;28;19911;-69
2022/06/18 12:59:43;;;;;;;;;;;22.60;99.90;;;;;;5112829;28;19968;-69
2022/06/18 13:02:18;;;;;;;;;;;22.70;99.90;;;;;;5101548;28;19915;-69
2022/06/18 13:04:56;;;;;;;;;;;22.90;99.90;;;;;;5094381;28;19915;-69
2022/06/18 13:07:22;;;;;;;;;;;22.90;99.90;;;;;;5112381;28;20343;-70
2022/06/18 13:09:50;;;;;;;;;;;23.00;99.90;;;;;;5112783;28;20006;-70
2022/06/18 13:12:16;;;;;;;;;;;23.00;99.90;;;;;;5112445;28;19951;-69
2022/06/18 13:15:00;;;;;;;;;;;23.10;99.90;;;;;;5112733;28;20393;-69
2022/06/18 13:17:31;;;;;;;;;;;23.10;99.90;;;;;;5112370;28;19912;-68
2022/06/18 13:20:00;;;;;;;;;;;23.00;99.90;;;;;;5112636;28;19926;-69
2022/06/18 13:22:26;;;;;;;;;;;23.00;99.90;;;;;;5112361;28;19951;-70
2022/06/18 13:30:21;;;;;;;;;;;23.10;99.90;;;;;;5112180;28;19926;-69
2022/06/18 13:33:02;;;;;;;;;;;23.20;99.90;;;;;;5112139;28;20389;-69
2022/06/18 13:35:27;;;;;;;;;;;23.30;99.50;;;;;;5094338;28;19968;-69
2022/06/18 13:37:58;;;;;;;;;;;23.30;99.40;;;;;;5112082;28;20361;-69
2022/06/18 13:40:42;;;;;;;;;;;23.30;99.40;;;;;;5112403;28;19926;-69
2022/06/18 13:43:19;;;;;;;;;;;23.40;98.60;;;;;;5112104;28;19916;-68
2022/06/18 13:45:50;;;;;;;;;;;23.50;98.90;;;;;;5112541;28;20341;-70
2022/06/18 13:48:16;;;;;;;;;;;23.40;98.20;;;;;;5111937;28;19919;-68
2022/06/18 13:50:43;;;;;;;;;;;23.40;98.30;;;;;;5112347;28;19920;-68
2022/06/18 13:53:09;;;;;;;;;;;23.40;98.20;;;;;;5111899;28;19935;-68
2022/06/18 13:55:38;;;;;;;;;;;23.40;98.70;;;;;;5112246;28;20354;-69
2022/06/18 13:58:15;;;;;;;;;;;23.30;98.10;;;;;;5111491;28;19920;-69
2022/06/18 14:00:41;;;;;;;;;;;23.30;98.30;;;;;;5111918;28;19912;-69
2022/06/18 14:03:08;;;;;;;;;;;23.30;97.90;;;;;;5111716;28;19937;-69
2022/06/18 14:05:37;;;;;;;;;;;23.30;97.80;;;;;;5112141;28;19915;-69
2022/06/18 14:08:03;;;;;;;;;;;23.30;97.10;;;;;;5112029;28;19965;-69
2022/06/18 14:10:28;;;;;;;;;;;23.30;96.80;;;;;;5112102;28;20019;-69
2022/06/18 14:12:56;;;;;;;;;;;23.20;96.60;;;;;;5111617;28;20363;-69
2022/06/18 14:15:26;;;;;;;;;;;23.10;96.70;;;;;;5112008;28;20002;-69
2022/06/18 14:17:58;;;;;;;;;;;23.10;96.70;;;;;;5111638;28;19912;-69
2022/06/18 14:20:24;;;;;;;;;;;23.10;96.40;;;;;;5112050;28;19972;-70
2022/06/18 14:23:16;;;;;;;;;;;23.10;95.90;;;;;;5111925;28;20305;-70
2022/06/18 14:25:56;;;;;;;;;;;23.10;95.50;;;;;;5089391;28;20006;-70
2022/06/18 14:28:27;;;;;;;;;;;23.00;95.90;;;;;;5111564;28;19912;-70
2022/06/18 14:30:58;;;;;;;;;;;22.90;95.70;;;;;;5111225;28;19919;-70
2022/06/18 14:33:50;;;;;;;;;;;23.00;95.90;;;;;;5111308;28;19916;-69
2022/06/18 14:36:17;;;;;;;;;;;23.00;95.50;;;;;;5082947;28;20286;-70
2022/06/18 14:38:44;;;;;;;;;;;23.00;95.20;;;;;;5115519;28;20269;-70
2022/06/18 14:44:20;;;;;;;;;;;22.80;95.10;;;;;;5115826;28;20412;-70
2022/06/18 14:47:04;;;;;;;;;;;22.70;95.70;;;;;;5111347;28;19920;-69
2022/06/18 14:49:52;;;;;;;;;;;22.70;95.90;;;;;;5115643;28;19962;-70
2022/06/18 14:52:23;;;;;;;;;;;22.70;96.00;;;;;;5115532;28;20381;-69